Logo Brunsvigian Airlines

Die löwenstarke Airline aus Braunschweig

Charts auf der Seite von VATEUD

EDDS 042320Z VRB01KT CAVOK 15/13 Q1019

flugnummerleerzeichenankunftleerzeichenplanmaessig
ABS107__BRAUNSCHWEIG_____16doppelpunkt20

flugnummerleerzeichenankunftleerzeichenplanmaessig
ABS106__BRAUNSCHWEIG_____15doppelpunkt55

Der Flughafen Stuttgart erschließt die Wirtschaftsregion in Baden-Württemberg. Die neue Messe ist direkt am Flughafen gelegen und durch den Autobahnanschluss erschließen wir hiermit eine ganze Region.

Kontakt   Impressum

Valid HTML 4.01 Transitional CSS ist valide!